createdAt,value
2018-04-14T00:04:44.570Z,84.47
2018-04-14T00:09:46.642Z,84.13
2018-04-14T00:14:47.953Z,76.03
2018-04-14T00:19:50.026Z,81.07
2018-04-14T00:24:51.333Z,76.47
2018-04-14T00:29:52.662Z,71.03
2018-04-14T00:34:53.965Z,71.07
2018-04-14T00:39:55.290Z,71.80
2018-04-14T00:44:56.627Z,70.43
2018-04-14T00:49:58.222Z,63.03
2018-04-14T00:54:59.578Z,80.10
2018-04-14T01:00:00.902Z,70.63
2018-04-14T01:05:02.574Z,64.97
2018-04-14T01:10:04.078Z,86.53
2018-04-14T01:15:07.385Z,73.27
2018-04-14T01:20:09.703Z,85.63
2018-04-14T01:25:11.773Z,67.93
2018-04-14T01:30:13.086Z,82.00
2018-04-14T01:35:14.402Z,66.23
2018-04-14T01:40:15.725Z,68.73
2018-04-14T01:45:17.045Z,76.47
2018-04-14T01:50:18.396Z,73.43
2018-04-14T01:55:19.725Z,85.00
2018-04-14T02:00:21.009Z,81.93
2018-04-14T02:05:22.330Z,63.27
2018-04-14T02:10:23.662Z,80.43
2018-04-14T02:15:24.985Z,75.40
2018-04-14T02:20:26.315Z,85.10
2018-04-14T02:25:28.377Z,86.90
2018-04-14T02:30:29.682Z,72.37
2018-04-14T02:35:31.017Z,73.53
2018-04-14T02:40:32.357Z,82.57
2018-04-14T02:45:33.682Z,67.07
2018-04-14T02:50:35.752Z,69.53
2018-04-14T02:55:37.074Z,75.43
2018-04-14T03:00:38.407Z,80.43
2018-04-14T03:05:39.760Z,77.37
2018-04-14T03:10:41.825Z,66.27
2018-04-14T03:15:43.146Z,75.17
2018-04-14T03:20:44.489Z,68.17
2018-04-14T03:25:45.850Z,76.17
2018-04-14T03:30:47.182Z,75.20
2018-04-14T03:35:48.501Z,74.13
2018-04-14T03:40:49.824Z,76.90
2018-04-14T03:45:51.151Z,76.67
2018-04-14T03:50:52.483Z,73.23
2018-04-14T03:55:54.542Z,71.60
2018-04-14T04:00:55.857Z,86.67
2018-04-14T04:05:57.158Z,86.00
2018-04-14T04:10:59.205Z,78.43
2018-04-14T04:16:00.514Z,79.73
2018-04-14T04:21:20.218Z,75.43
2018-04-14T04:26:21.518Z,80.47
2018-04-14T04:31:22.906Z,80.27
2018-04-14T04:36:24.215Z,73.93
2018-04-14T04:41:25.546Z,84.73
2018-04-14T04:46:27.618Z,83.43
2018-04-14T04:51:28.962Z,80.77
2018-04-14T04:56:30.271Z,69.53
2018-04-14T05:01:31.602Z,79.40
2018-04-14T05:06:32.926Z,68.83
2018-04-14T05:11:34.258Z,71.97
2018-04-14T05:16:35.602Z,86.23
2018-04-14T05:21:36.922Z,75.83
2018-04-14T05:26:38.253Z,84.90
2018-04-14T05:31:40.318Z,68.40
2018-04-14T05:36:41.631Z,75.23
2018-04-14T05:41:42.942Z,73.90
2018-04-14T05:46:45.019Z,68.00
2018-04-14T05:51:46.370Z,62.37
2018-04-14T05:56:47.681Z,75.47
2018-04-14T06:01:49.011Z,76.73
2018-04-14T06:06:51.081Z,65.77
2018-04-14T06:11:52.402Z,60.13
2018-04-14T06:16:53.722Z,62.33
2018-04-14T06:21:55.066Z,58.23
2018-04-14T06:26:56.406Z,67.53
2018-04-14T06:31:58.299Z,65.50
2018-04-14T06:36:59.682Z,60.03
2018-04-14T06:42:01.768Z,61.23
2018-04-14T06:47:03.129Z,52.10
2018-04-14T06:52:04.515Z,52.60
2018-04-14T06:57:05.873Z,61.57
2018-04-14T07:02:07.282Z,57.77
2018-04-14T07:07:08.752Z,62.43
2018-04-14T07:12:10.121Z,55.53
2018-04-14T07:17:12.212Z,51.13
2018-04-14T07:22:13.534Z,55.43
2018-04-14T07:27:14.931Z,50.80
2018-04-14T07:32:16.361Z,56.20
2018-04-14T07:37:17.698Z,51.20
2018-04-14T07:42:19.764Z,56.23
2018-04-14T07:47:21.750Z,57.27
2018-04-14T07:52:23.166Z,49.43
2018-04-14T07:57:24.477Z,57.67
2018-04-14T08:02:25.803Z,54.40
2018-04-14T08:07:27.125Z,50.37
2018-04-14T08:12:28.459Z,55.47
2018-04-14T08:17:29.799Z,47.57
2018-04-14T08:22:31.131Z,53.33
2018-04-14T08:27:33.219Z,53.33
2018-04-14T08:32:34.545Z,51.77
2018-04-14T08:37:35.876Z,49.47
2018-04-14T08:42:37.203Z,47.57
2018-04-14T08:47:39.280Z,45.77
2018-04-14T08:52:40.646Z,49.00
2018-04-14T08:57:41.976Z,43.20
2018-04-14T09:02:43.307Z,49.67
2018-04-14T09:07:44.625Z,50.37
2018-04-14T09:12:45.949Z,54.60
2018-04-14T09:17:47.985Z,47.90
2018-04-14T09:22:49.285Z,48.80
2018-04-14T09:27:50.602Z,46.60
2018-04-14T09:32:51.967Z,44.23
2018-04-14T09:37:53.321Z,43.50
2018-04-14T09:42:55.439Z,42.47
2018-04-14T09:47:57.874Z,42.03
2018-04-14T09:52:59.211Z,33.50
2018-04-14T09:58:00.559Z,32.93
2018-04-14T10:08:45.790Z,35.50
2018-04-14T10:13:47.081Z,33.90
2018-04-14T10:18:48.610Z,36.37
2018-04-14T10:23:49.928Z,36.93
2018-04-14T10:28:51.224Z,31.87
2018-04-14T10:33:52.545Z,35.07
2018-04-14T10:38:54.626Z,37.43
2018-04-14T10:43:55.957Z,33.27
2018-04-14T10:48:57.274Z,36.07
2018-04-14T10:53:58.610Z,35.37
2018-04-14T10:58:59.937Z,32.90
2018-04-14T11:04:01.250Z,35.53
2018-04-14T11:09:02.619Z,34.17
2018-04-14T11:14:04.019Z,35.57
2018-04-14T11:19:05.360Z,31.47
2018-04-14T11:24:06.693Z,32.57
2018-04-14T11:29:08.021Z,34.37
2018-04-14T11:34:09.349Z,33.40
2018-04-14T11:39:11.420Z,33.30
2018-04-14T11:44:12.770Z,41.30
2018-04-14T11:49:14.162Z,37.30
2018-04-14T11:54:15.569Z,35.47
2018-04-14T11:59:16.918Z,42.67
2018-04-14T12:04:18.989Z,37.70
2018-04-14T12:09:20.306Z,39.27
2018-04-14T12:14:21.606Z,40.60
2018-04-14T12:19:23.665Z,39.00
2018-04-14T12:24:24.983Z,41.47
2018-04-14T12:29:26.292Z,41.60
2018-04-14T12:34:27.616Z,42.80
2018-04-14T12:39:28.963Z,41.10
2018-04-14T12:44:31.013Z,41.90
2018-04-14T12:49:32.353Z,38.10
2018-04-14T12:54:34.402Z,45.50
2018-04-14T12:59:35.735Z,42.30
2018-04-14T13:04:37.063Z,38.70
2018-04-14T13:09:38.391Z,46.60
2018-04-14T13:14:39.689Z,47.20
2018-04-14T13:19:41.069Z,43.00
2018-04-14T13:24:42.404Z,49.47
2018-04-14T13:29:44.475Z,56.97
2018-04-14T13:34:45.826Z,50.10
2018-04-14T13:39:47.151Z,43.67
2018-04-14T13:44:48.474Z,52.63
2018-04-14T13:49:50.517Z,49.33
2018-04-14T13:54:51.839Z,48.00
2018-04-14T13:59:53.162Z,48.93
2018-04-14T14:04:55.223Z,53.13
2018-04-14T14:09:56.553Z,50.50
2018-04-14T14:14:58.606Z,51.37
2018-04-14T14:19:59.936Z,50.17
2018-04-14T14:25:01.258Z,47.40
2018-04-14T14:30:02.619Z,52.40
2018-04-14T14:35:03.933Z,50.63
2018-04-14T14:40:05.978Z,57.20
2018-04-14T14:45:07.302Z,50.73
2018-04-14T14:50:14.657Z,49.60
2018-04-14T14:55:16.026Z,59.83
2018-04-14T15:00:17.370Z,53.53
2018-04-14T15:05:18.702Z,57.57
2018-04-14T15:10:20.031Z,53.00
2018-04-14T15:15:21.354Z,48.40
2018-04-14T15:20:22.693Z,59.70
2018-04-14T15:25:24.028Z,61.00
2018-04-14T15:30:25.360Z,55.50
2018-04-14T15:35:27.421Z,58.37
2018-04-14T15:40:28.729Z,57.27
2018-04-14T15:45:30.053Z,53.40
2018-04-14T15:50:32.141Z,54.70
2018-04-14T15:55:33.653Z,59.00
2018-04-14T16:00:35.750Z,53.03
2018-04-14T16:05:37.838Z,53.80
2018-04-14T16:10:39.144Z,53.40
2018-04-14T16:15:41.192Z,45.87
2018-04-14T16:20:42.536Z,51.43
2018-04-14T16:25:43.857Z,41.67
2018-04-14T16:30:45.158Z,42.13
2018-04-14T16:35:46.484Z,43.83
2018-04-14T16:40:47.793Z,45.77
2018-04-14T16:45:49.089Z,50.23
2018-04-14T16:50:51.163Z,42.83
2018-04-14T16:55:52.468Z,49.53
2018-04-14T17:00:53.791Z,42.40
2018-04-14T17:05:55.181Z,42.63
2018-04-14T17:10:57.237Z,46.20
2018-04-14T17:15:58.599Z,51.97
2018-04-14T17:20:59.911Z,44.30
2018-04-14T17:26:01.236Z,40.47
2018-04-14T17:31:02.670Z,41.97
2018-04-14T17:36:03.974Z,43.60
2018-04-14T17:41:05.271Z,40.33
2018-04-14T17:46:06.572Z,38.20
2018-04-14T17:51:07.892Z,37.00
2018-04-14T17:56:10.013Z,41.40
2018-04-14T18:01:11.629Z,41.47
2018-04-14T18:06:12.954Z,39.20
2018-04-14T18:11:14.519Z,39.63
2018-04-14T18:16:16.045Z,37.10
2018-04-14T18:21:17.387Z,37.80
2018-04-14T18:26:18.719Z,41.30
2018-04-14T18:31:20.031Z,45.67
2018-04-14T18:36:21.374Z,34.67
2018-04-14T18:41:22.690Z,38.60
2018-04-14T18:46:23.997Z,43.70
2018-04-14T18:51:25.744Z,46.53
2018-04-14T18:56:27.301Z,44.80
2018-04-14T19:01:28.777Z,44.90
2018-04-14T19:06:30.095Z,44.10
2018-04-14T19:11:31.419Z,46.57
2018-04-14T19:16:32.751Z,49.23
2018-04-14T19:21:34.193Z,40.83
2018-04-14T19:26:35.541Z,52.13
2018-04-14T19:31:37.602Z,47.53
2018-04-14T19:36:41.370Z,44.43
2018-04-14T19:41:42.699Z,46.40
2018-04-14T19:46:44.749Z,39.40
2018-04-14T19:51:46.102Z,44.60
2018-04-14T19:56:48.319Z,45.23
2018-04-14T20:01:49.681Z,45.13
2018-04-14T20:06:51.961Z,43.33
2018-04-14T20:11:54.038Z,47.63
2018-04-14T20:16:55.345Z,42.47
2018-04-14T20:21:57.364Z,49.23
2018-04-14T20:26:58.718Z,45.20
2018-04-14T20:32:00.029Z,48.03
2018-04-14T20:37:01.362Z,46.77
2018-04-14T20:42:03.445Z,48.20
2018-04-14T20:47:04.763Z,46.27
2018-04-14T20:52:06.850Z,52.93
2018-04-14T20:57:08.181Z,52.13
2018-04-14T21:02:11.173Z,50.97
2018-04-14T21:07:12.576Z,45.13
2018-04-14T21:12:14.285Z,43.80
2018-04-14T21:17:16.366Z,55.07
2018-04-14T21:22:18.519Z,60.67
2018-04-14T21:27:19.833Z,48.37
2018-04-14T21:32:21.163Z,47.50
2018-04-14T21:37:22.491Z,52.27
2018-04-14T21:42:24.022Z,49.17
2018-04-14T21:47:25.396Z,54.03
2018-04-14T21:52:26.738Z,54.63
2018-04-14T21:57:28.030Z,51.40
2018-04-14T22:02:30.122Z,60.97
2018-04-14T22:07:31.468Z,56.67
2018-04-14T22:12:32.811Z,51.43
2018-04-14T22:17:34.869Z,51.83
2018-04-14T22:22:36.197Z,56.97
2018-04-14T22:27:37.498Z,51.87
2018-04-14T22:32:39.553Z,53.40
2018-04-14T22:37:40.877Z,59.00
2018-04-14T22:42:42.216Z,51.30
2018-04-14T22:47:43.558Z,56.10
2018-04-14T22:52:44.891Z,62.63
2018-04-14T22:57:46.219Z,59.60
2018-04-14T23:02:47.557Z,66.33
2018-04-14T23:07:48.884Z,62.57
2018-04-14T23:12:50.201Z,52.33
2018-04-14T23:17:51.507Z,64.90
2018-04-14T23:22:53.558Z,56.97
2018-04-14T23:27:54.895Z,56.10
2018-04-14T23:32:56.937Z,62.20
2018-04-14T23:37:58.257Z,62.97
2018-04-14T23:42:59.589Z,70.30
2018-04-14T23:48:01.672Z,59.93
2018-04-14T23:53:03.022Z,62.37
2018-04-14T23:58:04.374Z,73.67
